Wilmington, North Carolina
Current Conditions -  °F | °C
As of 5:53 AM on Sunday 21 Dec 2014 (Local Time) from KILM Reporting Station
Light Rain Light Rain  
Wind Chill: 31°   Ceiling: 8000
Heat Index: 38°   Visibility: 10mi
Dew Point: 34°   Wind: 9mph
Humidity: 86%   Direction: 30°NNE
Pressure: 30.24"   Gusts: NA
Location:  34.24°N, 77.94°W
Report Text: KILM 211053Z 03008KT 10SM -RA SCT060 OVC080 03/01 A3024 RMK AO2 RAB52 SLP238 P0000 T00330011
Loading
Personal Weather Stations






























Interactive Weather Map New forecast layout! Learn more

10-Day Weather Forecast

Advertisements
Track Severe Weather on mobile